Time;durP1;ratioP1;P1;durP2;ratioP2;P2;SDS_P1;SDS_P2;PMS_P1;PMS_P2;Temp;Humidity;BMP_temperature;BMP_pressure;BME280_temperature;BME280_humidity;BME280_pressure;Samples;Min_cycle;Max_cycle;Signal;HPM_P1;HPM_P2
2022/09/14 04:00:06;;;;;;;7.62;5.22;;;;;;;16.64;74.26;99876.28;5605253;31;80693;-55
2022/09/14 04:03:12;;;;;;;6.55;4.90;;;;;;;16.64;74.26;99876.28;5583054;32;33930;-56
2022/09/14 04:06:16;;;;;;;6.55;5.03;;;;;;;16.16;75.66;99882.28;5585560;31;33250;-56
2022/09/14 04:09:19;;;;;;;8.88;5.82;;;;;;;16.16;75.73;99883.06;5601098;31;34079;-56
2022/09/14 04:12:24;;;;;;;11.30;5.05;;;;;;;16.23;75.85;99881.75;5599183;31;33647;-56
2022/09/14 04:15:27;;;;;;;12.05;4.90;;;;;;;16.27;75.56;99883.47;5582571;31;33640;-56
2022/09/14 04:18:29;;;;;;;8.45;4.97;;;;;;;16.20;75.63;99883.19;5597228;31;34342;-56
2022/09/14 04:21:32;;;;;;;9.07;5.30;;;;;;;16.23;75.54;99865.53;5602407;31;33588;-56
2022/09/14 04:24:35;;;;;;;11.77;5.65;;;;;;;16.25;75.45;99866.75;5599122;31;34319;-56
2022/09/14 04:27:37;;;;;;;12.90;5.12;;;;;;;16.25;75.37;99849.75;5575850;32;33653;-57
2022/09/14 04:30:40;;;;;;;8.60;4.82;;;;;;;16.24;75.73;99848.16;5562894;32;33621;-57
2022/09/14 04:33:42;;;;;;;8.35;5.32;;;;;;;16.25;75.54;99845.12;5564350;32;33601;-56
2022/09/14 04:36:45;;;;;;;9.65;4.85;;;;;;;16.39;75.06;99852.94;5582490;32;33613;-57
2022/09/14 04:39:47;;;;;;;7.30;4.82;;;;;;;16.32;75.06;99841.87;5580194;32;33410;-57
2022/09/14 04:42:50;;;;;;;8.88;5.15;;;;;;;16.34;74.65;99842.34;5578196;32;34273;-56
2022/09/14 04:45:52;;;;;;;8.90;5.15;;;;;;;16.39;74.07;99848.34;5579229;31;33086;-56
2022/09/14 04:48:54;;;;;;;7.47;4.90;;;;;;;16.43;74.10;99849.28;5574745;32;33190;-56
2022/09/14 04:51:57;;;;;;;7.62;5.05;;;;;;;16.47;74.21;99845.91;5580024;31;33696;-56
2022/09/14 04:55:01;;;;;;;9.93;5.30;;;;;;;16.48;73.83;99842.84;5578931;32;33663;-56
2022/09/14 04:58:04;;;;;;;14.00;5.20;;;;;;;16.49;74.16;99830.94;5580401;32;32193;-56
2022/09/14 05:01:12;;;;;;;10.68;5.00;;;;;;;16.61;74.03;99830.94;5581484;32;33565;-56
2022/09/14 05:04:17;;;;;;;10.60;5.55;;;;;;;16.75;73.90;99827.19;5581076;32;33626;-56
2022/09/14 05:07:20;;;;;;;10.60;5.07;;;;;;;16.79;74.51;99831.59;5581111;32;34428;-56
2022/09/14 05:10:23;;;;;;;9.82;5.00;;;;;;;16.73;73.83;99838.31;5571592;32;33568;-56
2022/09/14 05:13:25;;;;;;;12.63;4.20;;;;;;;16.67;71.75;99836.94;5568300;32;33690;-56
2022/09/14 05:16:31;;;;;;;9.25;4.62;;;;;;;16.79;69.39;99839.72;5568187;32;33320;-56
2022/09/14 05:19:34;;;;;;;8.47;4.70;;;;;;;16.81;69.82;99842.88;5568062;32;33615;-56
2022/09/14 05:22:38;;;;;;;7.22;4.35;;;;;;;16.85;70.47;99843.81;5564262;32;34040;-56
2022/09/14 05:25:43;;;;;;;11.23;4.22;;;;;;;17.05;68.85;99852.16;5567586;32;34309;-56
2022/09/14 05:28:50;;;;;;;11.93;4.90;;;;;;;17.02;69.21;99850.13;5566426;32;34319;-56
2022/09/14 05:31:54;;;;;;;8.05;4.93;;;;;;;17.02;68.02;99848.25;5567939;32;33687;-56
2022/09/14 05:34:56;;;;;;;7.28;4.57;;;;;;;17.04;67.68;99845.19;5567111;32;33394;-57
2022/09/14 05:37:58;;;;;;;6.82;5.12;;;;;;;17.05;67.14;99828.63;5567061;32;33161;-56
2022/09/14 05:41:01;;;;;;;14.38;4.97;;;;;;;17.12;66.50;99815.31;5566882;32;33765;-56
2022/09/14 05:44:04;;;;;;;8.73;4.30;;;;;;;17.14;65.24;99823.06;5564142;32;33266;-56
2022/09/14 05:47:06;;;;;;;11.38;4.70;;;;;;;17.19;64.94;99819.38;5567291;32;34452;-56
2022/09/14 05:50:10;;;;;;;8.70;4.55;;;;;;;17.13;65.00;99833.13;5552310;32;33647;-57
2022/09/14 05:53:12;;;;;;;11.68;4.87;;;;;;;17.10;65.16;99825.66;5567328;32;33734;-56
2022/09/14 05:56:17;;;;;;;7.35;4.10;;;;;;;17.18;65.81;99837.50;5564558;32;33692;-57
2022/09/14 05:59:21;;;;;;;22.23;6.15;;;;;;;17.23;65.19;99842.72;5566595;32;33194;-56
2022/09/14 06:02:25;;;;;;;9.35;5.25;;;;;;;17.28;63.79;99852.53;5566106;32;33689;-56
2022/09/14 06:05:27;;;;;;;12.93;5.37;;;;;;;17.30;64.27;99847.59;5567116;32;33692;-56
2022/09/14 06:08:30;;;;;;;11.43;5.87;;;;;;;17.32;63.63;99846.13;5567385;32;33389;-57
2022/09/14 06:11:35;;;;;;;145.20;18.02;;;;;;;17.40;64.62;99835.50;5566077;32;32346;-56
2022/09/14 06:14:39;;;;;;;15.82;5.30;;;;;;;17.60;63.70;99837.31;5566305;32;33715;-56
2022/09/14 06:17:42;;;;;;;10.77;5.80;;;;;;;17.66;63.01;99830.53;5558749;32;34278;-56
2022/09/14 06:20:51;;;;;;;10.63;5.47;;;;;;;17.66;63.31;99830.53;5563946;32;33306;-56
2022/09/14 06:23:54;;;;;;;11.12;5.43;;;;;;;17.62;64.25;99821.50;5548154;32;34072;-57
2022/09/14 06:26:56;;;;;;;10.95;5.35;;;;;;;17.60;64.38;99823.75;5565305;32;33826;-56
2022/09/14 06:29:59;;;;;;;13.57;5.30;;;;;;;17.60;63.80;99821.03;5566311;32;33595;-56
2022/09/14 06:33:03;;;;;;;12.05;6.07;;;;;;;17.64;63.68;99827.34;5565199;32;33706;-56
2022/09/14 06:36:11;;;;;;;27.73;5.95;;;;;;;17.61;64.46;99830.75;5559033;32;33294;-57
2022/09/14 06:39:14;;;;;;;16.35;5.90;;;;;;;17.71;64.02;99829.50;5563670;32;34652;-56
2022/09/14 06:42:18;;;;;;;20.73;6.85;;;;;;;17.73;63.99;99829.94;5560458;32;33712;-57
2022/09/14 06:45:26;;;;;;;16.08;6.50;;;;;;;17.79;64.44;99850.31;5566055;32;33605;-56
2022/09/14 06:48:38;;;;;;;24.63;6.07;;;;;;;17.82;63.65;99853.12;5565571;32;33674;-57
2022/09/14 06:51:46;;;;;;;17.45;6.43;;;;;;;17.95;62.69;99867.44;5565062;32;34602;-56
2022/09/14 06:54:49;;;;;;;13.30;6.10;;;;;;;17.83;63.23;99879.09;5564530;32;33703;-57
2022/09/14 06:57:56;;;;;;;14.98;6.32;;;;;;;17.80;62.93;99860.00;5564950;32;33613;-56
2022/09/14 07:01:03;;;;;;;17.55;6.28;;;;;;;17.83;63.21;99856.63;5566931;32;33227;-56
2022/09/14 07:04:07;;;;;;;15.38;6.25;;;;;;;17.90;63.79;99856.81;5566241;32;33923;-56
2022/09/14 07:07:14;;;;;;;15.10;6.45;;;;;;;17.92;65.16;99842.94;5566111;32;33019;-56
2022/09/14 07:10:17;;;;;;;14.00;5.93;;;;;;;17.96;64.12;99835.69;5564468;32;33712;-56
2022/09/14 07:13:21;;;;;;;14.02;6.90;;;;;;;17.86;65.27;99838.88;5566287;32;33967;-57
2022/09/14 07:16:28;;;;;;;15.83;6.53;;;;;;;17.83;67.51;99824.88;5565656;32;33992;-56
2022/09/14 07:19:33;;;;;;;29.52;7.35;;;;;;;17.74;70.89;99826.88;5565820;32;33993;-57
2022/09/14 07:22:37;;;;;;;14.27;6.68;;;;;;;17.76;71.64;99840.13;5563382;32;33646;-57
2022/09/14 07:25:41;;;;;;;19.70;6.95;;;;;;;17.68;72.42;99844.53;5557409;32;33675;-57
2022/09/14 07:28:46;;;;;;;19.80;7.40;;;;;;;17.56;75.69;99849.97;5566672;32;33390;-56
2022/09/14 07:31:52;;;;;;;11.82;6.47;;;;;;;17.51;74.18;99839.34;5565857;32;33259;-56
2022/09/14 07:34:55;;;;;;;11.32;6.75;;;;;;;17.47;75.85;99841.94;5565361;32;34112;-56
2022/09/14 07:37:58;;;;;;;13.35;7.35;;;;;;;17.45;75.05;99844.22;5565533;32;33375;-56
2022/09/14 07:41:02;;;;;;;19.15;7.45;;;;;;;17.43;76.94;99846.47;5566498;32;33605;-56
2022/09/14 07:44:06;;;;;;;18.17;7.18;;;;;;;17.49;75.72;99849.75;5565831;32;34344;-56
2022/09/14 07:47:09;;;;;;;17.90;7.22;;;;;;;17.47;77.16;99852.78;5563381;32;33613;-56
2022/09/14 07:50:13;;;;;;;13.38;7.05;;;;;;;17.57;77.04;99843.41;5564544;32;35018;-56
2022/09/14 07:53:15;;;;;;;14.00;6.70;;;;;;;17.66;74.27;99835.94;5561647;32;33569;-56
2022/09/14 07:56:19;;;;;;;17.17;6.82;;;;;;;17.69;73.66;99832.56;5563764;32;33367;-56
2022/09/14 07:59:21;;;;;;;14.68;7.80;;;;;;;17.69;75.36;99827.13;5563418;32;34332;-56
2022/09/14 08:02:39;;;;;;;13.50;6.65;;;;;;;17.76;73.64;99832.78;5564339;32;33276;-57
2022/09/14 08:05:41;;;;;;;20.55;8.05;;;;;;;17.77;74.43;99830.88;5564370;32;35135;-56
2022/09/14 08:08:46;;;;;;;14.07;7.25;;;;;;;17.69;73.75;99835.25;5565385;32;34415;-56
2022/09/14 08:11:48;;;;;;;13.35;7.32;;;;;;;17.80;74.21;99813.91;5560297;32;33897;-56
2022/09/14 08:14:52;;;;;;;15.05;8.45;;;;;;;17.87;75.46;99797.84;5563308;32;34566;-56
2022/09/14 08:17:54;;;;;;;14.23;8.02;;;;;;;17.94;73.61;99783.72;5565619;32;33692;-56
2022/09/14 08:20:56;;;;;;;19.85;8.35;;;;;;;17.96;75.08;99798.53;5564608;32;35053;-57
2022/09/14 08:24:01;;;;;;;19.08;8.30;;;;;;;17.91;74.97;99809.59;5554808;32;34347;-56
2022/09/14 08:27:03;;;;;;;17.12;7.95;;;;;;;17.96;72.61;99806.66;5558309;32;34139;-56
2022/09/14 08:30:05;;;;;;;16.12;8.32;;;;;;;17.91;73.73;99803.37;5545589;32;34220;-56
2022/09/14 08:33:07;;;;;;;17.33;7.47;;;;;;;17.83;75.81;99808.59;5547553;32;33776;-56
2022/09/14 08:36:12;;;;;;;17.87;7.60;;;;;;;17.81;76.07;99802.75;5561826;32;34225;-56
2022/09/14 08:39:15;;;;;;;18.15;7.78;;;;;;;17.97;73.51;99802.81;5563143;32;34239;-56
2022/09/14 08:42:19;;;;;;;15.48;8.20;;;;;;;18.07;73.76;99796.09;5564797;32;33603;-57
2022/09/14 08:45:23;;;;;;;15.65;8.75;;;;;;;18.12;71.96;99792.38;5565236;32;34276;-56
2022/09/14 08:48:33;;;;;;;14.35;8.57;;;;;;;18.14;74.62;99800.94;5565438;32;34314;-56
2022/09/14 08:51:35;;;;;;;12.60;7.95;;;;;;;18.15;73.56;99797.91;5564628;32;35122;-56
2022/09/14 08:54:38;;;;;;;14.57;8.43;;;;;;;18.25;72.76;99796.63;5560187;32;34187;-56
2022/09/14 08:57:47;;;;;;;15.35;7.85;;;;;;;18.42;71.68;99796.31;5563680;32;33304;-56
2022/09/14 09:01:05;;;;;;;15.65;8.73;;;;;;;18.44;70.93;99798.66;5563097;32;33745;-57
2022/09/14 09:04:28;;;;;;;13.55;7.95;;;;;;;18.57;71.38;99789.31;5560420;32;34458;-56
2022/09/14 09:07:55;;;;;;;16.77;9.20;;;;;;;18.54;72.40;99781.88;5565856;32;34207;-57
2022/09/14 09:10:59;;;;;;;16.87;8.77;;;;;;;18.63;72.23;99790.66;5564758;32;34698;-56
2022/09/14 09:14:11;;;;;;;14.55;8.88;;;;;;;18.82;71.74;99783.78;5563543;32;33899;-56
2022/09/14 09:17:29;;;;;;;16.50;9.10;;;;;;;18.87;73.38;99781.56;5550845;32;33676;-57
2022/09/14 09:20:36;;;;;;;23.60;9.48;;;;;;;18.82;73.72;99775.62;5564849;32;34497;-56
2022/09/14 09:23:39;;;;;;;12.43;9.00;;;;;;;18.85;73.70;99783.09;5567321;32;34513;-56
2022/09/14 09:26:42;;;;;;;15.30;9.00;;;;;;;19.01;72.16;99802.91;5561393;31;33996;-56
2022/09/14 09:29:44;;;;;;;17.40;9.48;;;;;;;19.00;71.52;99815.66;5566587;32;34508;-56
2022/09/14 09:32:46;;;;;;;32.85;9.77;;;;;;;18.91;71.20;99819.72;5562695;32;34256;-56
2022/09/14 09:35:51;;;;;;;17.20;9.23;;;;;;;18.95;73.16;99823.31;5565191;32;33827;-56
2022/09/14 09:38:53;;;;;;;21.25;9.63;;;;;;;19.09;71.96;99814.72;5561250;31;33572;-56
2022/09/14 09:42:23;;;;;;;13.10;8.90;;;;;;;19.29;71.48;99827.22;5564145;32;33806;-57
2022/09/14 09:46:03;;;;;;;15.65;9.40;;;;;;;19.31;71.23;99837.75;5560996;32;33711;-56
2022/09/14 09:49:19;;;;;;;17.15;9.50;;;;;;;19.25;71.61;99831.81;5564933;32;33858;-56
2022/09/14 09:52:21;;;;;;;;;;;;;;;19.27;70.79;99826.00;5563042;32;33760;-56
2022/09/14 09:55:34;;;;;;;13.48;8.52;;;;;;;19.30;71.17;99823.38;5565914;32;34594;-56
2022/09/14 09:58:38;;;;;;;19.37;9.13;;;;;;;19.41;70.59;99824.41;5566106;32;34335;-56
2022/09/14 10:01:40;;;;;;;14.50;9.57;;;;;;;19.40;70.75;99824.75;5568008;32;33723;-56
2022/09/14 10:04:55;;;;;;;16.37;8.63;;;;;;;19.47;70.63;99816.78;5566729;32;34358;-56
2022/09/14 10:08:00;;;;;;;16.80;8.95;;;;;;;19.51;71.05;99823.09;5563499;32;33294;-56
2022/09/14 10:11:02;;;;;;;17.55;8.88;;;;;;;19.65;70.37;99831.59;5564336;32;33956;-56
2022/09/14 10:14:21;;;;;;;13.23;8.98;;;;;;;19.67;71.09;99844.84;5564797;32;33681;-56
2022/09/14 10:17:23;;;;;;;15.50;9.55;;;;;;;19.78;70.58;99839.63;5565386;32;33789;-57
2022/09/14 10:20:26;;;;;;;17.55;8.45;;;;;;;19.88;69.53;99852.69;5564791;32;33714;-56
2022/09/14 10:23:32;;;;;;;17.23;8.55;;;;;;;19.91;71.31;99843.81;5564475;32;32216;-56
2022/09/14 10:26:35;;;;;;;13.88;8.85;;;;;;;20.04;69.93;99831.66;5561787;32;33856;-56
2022/09/14 10:29:41;;;;;;;20.40;9.30;;;;;;;20.08;69.87;99826.28;5565821;32;33615;-56
2022/09/14 10:33:00;;;;;;;16.75;8.57;;;;;;;20.14;69.25;99822.16;5565387;32;33740;-56
2022/09/14 10:36:28;;;;;;;14.23;9.18;;;;;;;20.14;69.23;99813.97;5566518;32;34475;-57
2022/09/14 10:39:49;;;;;;;12.30;8.07;;;;;;;20.27;69.13;99809.19;5565044;32;33764;-56
2022/09/14 10:43:10;;;;;;;10.50;7.32;;;;;;;20.27;70.53;99801.81;5558978;32;33878;-56
2022/09/14 10:46:19;;;;;;;13.10;7.32;;;;;;;20.40;69.99;99811.37;5566065;32;33380;-57
2022/09/14 10:49:38;;;;;;;10.05;7.55;;;;;;;20.41;70.44;99804.78;5560776;32;33780;-57
2022/09/14 10:52:57;;;;;;;13.68;7.37;;;;;;;20.41;71.24;99801.28;5548460;32;33716;-56
2022/09/14 10:56:21;;;;;;;9.82;7.28;;;;;;;20.44;70.85;99808.72;5558853;32;36178;-56
2022/09/14 10:59:52;;;;;;;11.73;8.30;;;;;;;20.47;70.09;99808.00;5549641;32;33666;-57
2022/09/14 11:03:18;;;;;;;11.93;8.38;;;;;;;20.49;70.40;99802.19;5553700;32;33357;-56
2022/09/14 11:06:23;;;;;;;;;;;;;;;20.52;69.87;99801.50;5565076;32;34188;-56
2022/09/14 11:09:45;;;;;;;13.55;8.52;;;;;;;20.60;69.42;99814.12;5561268;32;33944;-56
2022/09/14 11:13:10;;;;;;;16.52;8.18;;;;;;;20.55;70.80;99807.00;5565362;32;33276;-56
2022/09/14 11:16:19;;;;;;;19.15;8.50;;;;;;;20.57;69.85;99801.22;5565522;32;33181;-57
2022/09/14 11:19:39;;;;;;;14.40;8.30;;;;;;;20.60;70.09;99793.13;5565085;32;34362;-56
2022/09/14 11:23:14;;;;;;;13.88;7.75;;;;;;;20.62;69.64;99788.06;5559511;32;33649;-57
2022/09/14 11:26:34;;;;;;;13.55;7.85;;;;;;;20.62;70.21;99777.19;5554470;32;33915;-56
2022/09/14 11:30:00;;;;;;;12.32;7.60;;;;;;;20.62;71.25;99779.91;5566887;32;34464;-56
2022/09/14 11:33:09;;;;;;;15.73;8.43;;;;;;;20.60;71.53;99782.22;5566623;32;34116;-56
2022/09/14 11:36:18;;;;;;;12.35;7.70;;;;;;;20.62;71.66;99776.41;5565519;32;34036;-56
2022/09/14 11:39:32;;;;;;;14.57;7.93;;;;;;;20.59;72.42;99780.63;5548086;32;34265;-57
2022/09/14 11:42:44;;;;;;;8.93;7.15;;;;;;;20.58;72.21;99778.28;5565850;32;33543;-56
2022/09/14 11:45:51;;;;;;;12.02;7.47;;;;;;;20.60;72.28;99768.59;5565566;32;34148;-56
2022/09/14 11:49:03;;;;;;;14.05;7.60;;;;;;;20.70;72.02;99758.25;5565398;32;33186;-57
2022/09/14 11:52:20;;;;;;;12.43;7.18;;;;;;;20.77;71.26;99742.03;5565793;32;33629;-56
2022/09/14 11:55:23;;;;;;;14.18;6.90;;;;;;;20.79;72.57;99737.78;5565657;32;33709;-56
2022/09/14 11:58:29;;;;;;;11.98;7.32;;;;;;;20.83;72.47;99754.19;5564799;32;33299;-56
2022/09/14 12:01:32;;;;;;;11.88;8.35;;;;;;;20.89;72.62;99758.16;5566102;32;34307;-56
2022/09/14 12:04:34;;;;;;;14.50;7.25;;;;;;;20.94;72.29;99766.06;5565203;32;33818;-56
2022/09/14 12:07:42;;;;;;;12.45;6.37;;;;;;;20.99;72.24;99756.78;5559146;32;34008;-56
2022/09/14 12:11:07;;;;;;;12.32;6.22;;;;;;;21.06;72.13;99756.91;5546981;32;33684;-56
2022/09/14 12:14:28;;;;;;;11.15;6.10;;;;;;;21.09;71.46;99743.34;5546464;32;33672;-57
2022/09/14 12:17:32;;;;;;;8.85;6.30;;;;;;;21.26;70.84;99743.97;5546863;32;34405;-57
2022/09/14 12:20:44;;;;;;;17.83;7.15;;;;;;;21.23;70.40;99744.69;5548091;32;33792;-57
2022/09/14 12:23:51;;;;;;;13.27;6.95;;;;;;;21.25;69.93;99732.25;5549763;32;33696;-56
2022/09/14 12:26:53;;;;;;;9.77;6.05;;;;;;;21.35;69.99;99728.91;5549316;32;33750;-57
2022/09/14 12:29:56;;;;;;;10.13;5.82;;;;;;;21.37;70.20;99725.84;5561708;32;33571;-57
2022/09/14 12:32:59;;;;;;;9.10;5.37;;;;;;;21.40;70.56;99733.28;5568648;32;33756;-56
2022/09/14 12:36:11;;;;;;;9.20;5.82;;;;;;;21.45;70.58;99723.97;5568572;32;34456;-57
2022/09/14 12:39:22;;;;;;;8.55;5.37;;;;;;;21.50;70.00;99729.91;5569098;32;33813;-57
2022/09/14 12:42:28;;;;;;;7.53;5.50;;;;;;;21.55;69.59;99717.88;5568970;32;33337;-57
2022/09/14 12:45:49;;;;;;;10.20;4.72;;;;;;;21.67;68.81;99709.47;5569222;32;34275;-56
2022/09/14 12:48:54;;;;;;;7.80;4.87;;;;;;;21.63;69.29;99699.69;5569434;32;33822;-57
2022/09/14 12:52:03;;;;;;;7.07;4.45;;;;;;;21.63;69.84;99695.00;5569387;32;33928;-56
2022/09/14 12:55:44;;;;;;;7.40;4.15;;;;;;;21.70;69.64;99697.81;5569158;32;33874;-57
2022/09/14 12:59:00;;;;;;;12.73;4.05;;;;;;;21.71;69.65;99684.97;5550984;31;33631;-56
2022/09/14 13:02:59;;;;;;;9.85;4.22;;;;;;;21.74;69.62;99671.38;5568831;32;34493;-56
2022/09/14 13:06:01;;;;;;;7.62;3.97;;;;;;;21.77;68.86;99664.38;5569096;32;33666;-56
2022/09/14 13:09:20;;;;;;;7.20;3.90;;;;;;;21.75;68.65;99656.56;5569170;32;34501;-56
2022/09/14 13:12:45;;;;;;;6.90;3.85;;;;;;;21.77;69.33;99656.19;5567837;32;33703;-57
2022/09/14 13:16:29;;;;;;;6.43;4.07;;;;;;;21.76;68.98;99654.62;5568763;32;33798;-57
2022/09/14 13:19:32;;;;;;;9.27;4.15;;;;;;;21.76;68.51;99652.69;5561209;31;33391;-57
2022/09/14 13:22:41;;;;;;;11.43;4.53;;;;;;;21.85;68.20;99654.31;5568623;32;33900;-57
2022/09/14 13:25:43;;;;;;;10.05;4.30;;;;;;;21.89;68.57;99657.91;5568209;32;33949;-56
2022/09/14 13:28:49;;;;;;;8.80;4.50;;;;;;;21.83;68.81;99660.16;5568924;32;34510;-56
2022/09/14 13:31:52;;;;;;;8.70;5.25;;;;;;;21.81;69.40;99657.78;5566758;32;33776;-56
2022/09/14 13:34:56;;;;;;;12.55;4.55;;;;;;;21.95;68.31;99654.47;5568742;31;33401;-57
2022/09/14 13:38:05;;;;;;;9.07;4.62;;;;;;;21.98;68.72;99664.59;5568472;32;34297;-57
2022/09/14 13:41:21;;;;;;;9.13;4.68;;;;;;;21.98;68.47;99664.59;5567251;32;33748;-56
2022/09/14 13:44:32;;;;;;;11.90;4.80;;;;;;;21.98;67.97;99670.06;5548419;32;33648;-57
2022/09/14 13:47:38;;;;;;;11.57;4.80;;;;;;;21.97;68.48;99667.72;5548722;32;33596;-56
2022/09/14 13:50:45;;;;;;;15.03;4.17;;;;;;;22.01;69.28;99666.56;5548780;32;33970;-57
2022/09/14 13:53:55;;;;;;;14.20;4.32;;;;;;;22.03;68.91;99664.28;5547906;32;33752;-57
2022/09/14 13:57:15;;;;;;;8.07;4.40;;;;;;;22.07;68.79;99668.97;5548062;32;33398;-57
2022/09/14 14:00:19;;;;;;;20.65;5.35;;;;;;;22.16;67.92;99664.03;5548317;32;34447;-57
2022/09/14 14:03:26;;;;;;;24.60;5.50;;;;;;;22.12;67.91;99658.53;5548103;32;33332;-56
2022/09/14 14:06:33;;;;;;;14.38;4.37;;;;;;;22.13;68.23;99654.62;5548737;32;34283;-57
2022/09/14 14:09:52;;;;;;;13.70;3.97;;;;;;;22.11;67.84;99659.66;5548284;32;33630;-57
2022/09/14 14:12:54;;;;;;;11.93;4.25;;;;;;;22.10;68.64;99657.31;5548160;32;33927;-57
2022/09/14 14:16:18;;;;;;;8.90;3.80;;;;;;;22.17;68.76;99647.28;5552732;32;34393;-57
2022/09/14 14:19:28;;;;;;;14.15;3.40;;;;;;;22.19;69.18;99636.00;5562121;32;33971;-57
2022/09/14 14:22:36;;;;;;;14.20;3.50;;;;;;;22.19;69.42;99633.25;5567798;32;33327;-57
2022/09/14 14:25:40;;;;;;;12.00;3.70;;;;;;;22.21;68.86;99636.38;5568247;32;33829;-57
2022/09/14 14:28:47;;;;;;;5.12;3.42;;;;;;;22.26;69.12;99625.13;5566226;32;33431;-57
2022/09/14 14:31:49;;;;;;;12.13;3.95;;;;;;;22.22;67.88;99621.59;5554795;32;34356;-57
2022/09/14 14:34:52;;;;;;;7.65;3.62;;;;;;;22.29;67.93;99618.91;5548717;32;33414;-56
2022/09/14 14:37:55;;;;;;;8.90;3.78;;;;;;;22.32;67.63;99620.91;5548768;32;33716;-56
2022/09/14 14:40:57;;;;;;;6.07;3.60;;;;;;;22.26;68.34;99625.13;5549170;32;33760;-57
2022/09/14 14:44:00;;;;;;;7.30;3.92;;;;;;;22.27;67.67;99626.69;5561150;32;34295;-57
2022/09/14 14:47:04;;;;;;;9.27;3.95;;;;;;;22.37;67.14;99617.81;5567720;32;33819;-56
2022/09/14 14:50:15;;;;;;;9.05;3.60;;;;;;;22.40;67.69;99597.16;5566001;32;34332;-57
2022/09/14 14:53:17;;;;;;;7.97;3.92;;;;;;;22.34;68.20;99585.00;5563737;32;33746;-57
2022/09/14 14:56:19;;;;;;;9.88;4.03;;;;;;;22.28;68.12;99588.09;5567727;32;33660;-57
2022/09/14 14:59:26;;;;;;;7.43;4.30;;;;;;;22.29;68.27;99605.25;5568274;32;34357;-57
2022/09/14 15:02:28;;;;;;;8.93;3.70;;;;;;;22.31;68.34;99604.87;5566504;32;34343;-57
2022/09/14 15:05:31;;;;;;;8.07;3.37;;;;;;;22.28;68.29;99603.69;5568443;32;33833;-57
2022/09/14 15:08:33;;;;;;;13.52;4.05;;;;;;;22.21;68.70;99598.94;5567387;32;33847;-57
2022/09/14 15:11:39;;;;;;;6.65;3.37;;;;;;;22.24;69.77;99597.41;5568488;32;33794;-56
2022/09/14 15:14:41;;;;;;;7.65;3.25;;;;;;;22.17;69.64;99592.69;5568444;32;33873;-57
2022/09/14 15:17:44;;;;;;;7.22;3.55;;;;;;;22.15;69.37;99594.19;5568161;32;33640;-57
2022/09/14 15:20:46;;;;;;;6.43;3.40;;;;;;;22.22;68.88;99588.84;5568457;32;33720;-56
2022/09/14 15:23:48;;;;;;;5.53;3.70;;;;;;;22.27;69.02;99586.50;5568459;32;34531;-57
2022/09/14 15:26:52;;;;;;;7.95;3.70;;;;;;;22.32;68.56;99581.84;5568380;32;33680;-57
2022/09/14 15:29:54;;;;;;;6.78;3.80;;;;;;;22.30;69.08;99573.28;5568214;32;34095;-57
2022/09/14 15:32:56;;;;;;;10.93;3.70;;;;;;;22.32;69.22;99565.47;5568669;32;33813;-57
2022/09/14 15:35:58;;;;;;;6.55;3.80;;;;;;;22.32;69.44;99569.03;5568087;32;33742;-57
2022/09/14 15:39:01;;;;;;;11.85;4.40;;;;;;;22.29;68.78;99558.84;5568330;32;34002;-57
2022/09/14 15:42:04;;;;;;;7.70;3.87;;;;;;;22.25;69.16;99549.81;5567996;32;34126;-57
2022/09/14 15:45:06;;;;;;;7.50;3.50;;;;;;;22.20;69.85;99550.97;5568155;32;33762;-57
2022/09/14 15:48:13;;;;;;;6.25;3.37;;;;;;;22.14;70.22;99540.75;5568056;32;33619;-57
2022/09/14 15:51:18;;;;;;;5.07;3.37;;;;;;;22.11;70.26;99542.28;5568159;32;33941;-57
2022/09/14 15:54:23;;;;;;;6.27;3.50;;;;;;;22.14;70.50;99532.56;5567782;32;34387;-56
2022/09/14 15:57:26;;;;;;;6.50;3.62;;;;;;;22.13;70.04;99542.72;5567975;32;33722;-56
2022/09/14 16:00:28;;;;;;;6.93;3.65;;;;;;;22.07;70.81;99544.22;5566902;32;33790;-57
2022/09/14 16:03:30;;;;;;;7.45;3.78;;;;;;;22.09;70.77;99541.13;5567820;32;34464;-56
2022/09/14 16:06:33;;;;;;;7.90;3.87;;;;;;;22.07;70.88;99559.81;5567650;32;33827;-56
2022/09/14 16:09:40;;;;;;;7.78;3.62;;;;;;;22.04;71.07;99573.03;5567901;32;34402;-56
2022/09/14 16:12:42;;;;;;;8.93;3.70;;;;;;;22.03;71.12;99570.69;5567524;32;33178;-57
2022/09/14 16:15:44;;;;;;;11.50;3.53;;;;;;;21.99;71.69;99578.09;5567673;32;34515;-57
2022/09/14 16:18:48;;;;;;;8.23;3.30;;;;;;;21.99;71.70;99591.72;5567658;32;33344;-57
2022/09/14 16:21:51;;;;;;;6.20;3.80;;;;;;;21.97;72.12;99578.44;5567522;32;33738;-57
2022/09/14 16:24:54;;;;;;;9.65;3.65;;;;;;;22.07;71.37;99573.47;5567581;32;33674;-57
2022/09/14 16:27:57;;;;;;;6.30;3.40;;;;;;;21.97;71.80;99578.44;5567435;32;34338;-56
2022/09/14 16:31:10;;;;;;;7.60;4.10;;;;;;;21.93;72.26;99585.03;5567416;32;34543;-57
2022/09/14 16:34:19;;;;;;;8.43;3.87;;;;;;;21.90;72.59;99575.66;5567319;32;34005;-56
2022/09/14 16:37:21;;;;;;;8.20;3.72;;;;;;;21.86;72.62;99577.56;5567018;32;34065;-57
2022/09/14 16:40:24;;;;;;;6.05;4.25;;;;;;;21.92;72.35;99567.88;5566694;32;33791;-57
2022/09/14 16:43:28;;;;;;;5.60;3.60;;;;;;;21.85;72.62;99562.34;5565947;32;33764;-57
